createdAt,value
2022-08-14T00:02:18.739Z,5.95
2022-08-14T00:04:47.389Z,5.88
2022-08-14T00:07:15.746Z,6.00
2022-08-14T00:10:02.202Z,5.10
2022-08-14T00:12:39.482Z,5.78
2022-08-14T00:15:15.157Z,6.22
2022-08-14T00:17:48.221Z,4.63
2022-08-14T00:20:30.465Z,4.75
2022-08-14T00:23:11.865Z,4.95
2022-08-14T00:25:42.800Z,5.20
2022-08-14T00:28:15.020Z,5.15
2022-08-14T00:30:45.431Z,4.93
2022-08-14T00:33:16.038Z,5.63
2022-08-14T00:36:36.591Z,5.20
2022-08-14T00:38:35.064Z,4.78
2022-08-14T00:41:05.235Z,5.75
2022-08-14T00:43:33.722Z,4.70
2022-08-14T00:46:07.989Z,5.10
2022-08-14T00:48:38.487Z,5.40
2022-08-14T00:51:08.904Z,4.22
2022-08-14T00:53:39.909Z,4.75
2022-08-14T00:56:15.410Z,4.53
2022-08-14T00:58:45.433Z,4.75
2022-08-14T01:01:19.252Z,4.53
2022-08-14T01:03:52.873Z,4.88
2022-08-14T01:06:21.845Z,4.68
2022-08-14T01:08:58.057Z,5.07
2022-08-14T01:11:35.494Z,4.45
2022-08-14T01:14:25.684Z,4.60
2022-08-14T01:16:55.716Z,4.90
2022-08-14T01:19:41.817Z,4.80
2022-08-14T01:22:18.650Z,4.20
2022-08-14T01:24:48.472Z,5.07
2022-08-14T01:27:22.356Z,4.20
2022-08-14T01:29:59.259Z,4.43
2022-08-14T01:32:35.534Z,4.05
2022-08-14T01:35:18.769Z,3.90
2022-08-14T01:37:56.505Z,4.57
2022-08-14T01:40:37.084Z,4.15
2022-08-14T01:43:18.439Z,4.38
2022-08-14T01:45:57.801Z,4.30
2022-08-14T01:48:36.992Z,4.90
2022-08-14T01:51:19.297Z,4.40
2022-08-14T01:53:55.330Z,4.10
2022-08-14T01:56:37.162Z,4.63
2022-08-14T01:59:09.605Z,3.95
2022-08-14T02:01:41.930Z,4.53
2022-08-14T02:04:54.774Z,4.55
2022-08-14T02:07:15.661Z,5.32
2022-08-14T02:09:45.768Z,4.70
2022-08-14T02:12:26.497Z,5.10
2022-08-14T02:15:00.308Z,4.90
2022-08-14T02:17:31.050Z,5.53
2022-08-14T02:20:00.120Z,5.55
2022-08-14T02:22:33.406Z,5.18
2022-08-14T02:25:04.130Z,5.82
2022-08-14T02:28:24.093Z,5.78
2022-08-14T02:30:20.813Z,5.10
2022-08-14T02:32:50.947Z,4.78
2022-08-14T02:35:21.812Z,4.82
2022-08-14T02:37:50.877Z,5.45
2022-08-14T02:40:32.148Z,4.82
2022-08-14T02:43:03.762Z,5.30
2022-08-14T02:45:38.414Z,4.32
2022-08-14T02:49:01.918Z,5.47
2022-08-14T02:51:05.091Z,5.25
2022-08-14T02:53:33.631Z,5.22
2022-08-14T02:56:29.667Z,5.28
2022-08-14T02:59:02.086Z,5.45
2022-08-14T03:01:43.628Z,5.72
2022-08-14T03:04:20.699Z,5.50
2022-08-14T03:06:57.788Z,5.70
2022-08-14T03:09:42.299Z,5.70
2022-08-14T03:12:31.078Z,5.30
2022-08-14T03:15:00.592Z,5.60
2022-08-14T03:17:31.698Z,5.18
2022-08-14T03:20:00.485Z,5.53
2022-08-14T03:22:29.956Z,5.88
2022-08-14T03:24:58.380Z,5.65
2022-08-14T03:27:47.968Z,6.00
2022-08-14T03:30:23.425Z,5.85
2022-08-14T03:32:52.445Z,5.57
2022-08-14T03:35:24.466Z,5.57
2022-08-14T03:39:14.329Z,5.22
2022-08-14T03:40:58.925Z,6.07
2022-08-14T03:43:32.444Z,5.70
2022-08-14T03:46:01.355Z,6.05
2022-08-14T03:48:40.449Z,6.07
2022-08-14T03:51:10.582Z,6.10
2022-08-14T03:53:43.556Z,5.40
2022-08-14T03:56:15.071Z,6.05
2022-08-14T03:58:56.941Z,6.00
2022-08-14T04:01:29.501Z,6.40
2022-08-14T04:04:10.839Z,6.28
2022-08-14T04:06:42.610Z,6.00
2022-08-14T04:09:16.910Z,5.43
2022-08-14T04:11:46.351Z,6.05
2022-08-14T04:14:16.553Z,6.25
2022-08-14T04:16:47.498Z,6.30
2022-08-14T04:19:17.464Z,7.07
2022-08-14T04:22:01.772Z,5.70
2022-08-14T04:24:38.224Z,6.80
2022-08-14T04:27:09.602Z,5.95
2022-08-14T04:29:40.738Z,5.47
2022-08-14T04:32:59.212Z,6.20
2022-08-14T04:35:01.101Z,6.57
2022-08-14T04:37:53.613Z,5.55
2022-08-14T04:40:40.434Z,6.13
2022-08-14T04:43:38.380Z,6.38
2022-08-14T04:46:54.799Z,6.65
2022-08-14T04:49:00.435Z,5.78
2022-08-14T04:51:37.492Z,6.55
2022-08-14T04:54:16.682Z,5.82
2022-08-14T04:56:45.835Z,6.28
2022-08-14T04:59:14.177Z,6.15
2022-08-14T05:01:49.050Z,6.22
2022-08-14T05:04:20.967Z,6.53
2022-08-14T05:06:53.711Z,6.95
2022-08-14T05:09:23.879Z,6.05
2022-08-14T05:11:53.116Z,7.18
2022-08-14T05:14:45.700Z,6.43
2022-08-14T05:17:14.369Z,6.78
2022-08-14T05:19:44.202Z,6.78
2022-08-14T05:22:31.376Z,6.50
2022-08-14T05:25:00.273Z,6.85
2022-08-14T05:27:30.899Z,6.80
2022-08-14T05:30:07.172Z,6.43
2022-08-14T05:32:40.910Z,6.85
2022-08-14T05:35:12.533Z,7.25
2022-08-14T05:37:54.427Z,7.13
2022-08-14T05:40:23.546Z,7.57
2022-08-14T05:42:53.121Z,7.95
2022-08-14T05:45:21.642Z,7.38
2022-08-14T05:47:52.538Z,7.38
2022-08-14T05:50:21.050Z,7.22
2022-08-14T05:52:52.440Z,7.35
2022-08-14T05:55:23.002Z,7.63
2022-08-14T05:57:57.966Z,7.85
2022-08-14T06:00:38.767Z,7.53
2022-08-14T06:03:15.169Z,7.43
2022-08-14T06:05:44.111Z,7.35
2022-08-14T06:08:31.428Z,8.25
2022-08-14T06:11:07.491Z,8.05
2022-08-14T06:13:41.095Z,7.93
2022-08-14T06:16:17.699Z,8.07
2022-08-14T06:18:52.359Z,8.52
2022-08-14T06:21:21.594Z,7.78
2022-08-14T06:23:51.663Z,9.70
2022-08-14T06:26:22.064Z,8.30
2022-08-14T06:28:52.285Z,9.18
2022-08-14T06:31:22.701Z,9.30
2022-08-14T06:35:10.610Z,8.60
2022-08-14T06:36:41.313Z,8.50
2022-08-14T06:39:10.802Z,8.45
2022-08-14T06:41:58.060Z,8.82
2022-08-14T06:44:30.721Z,9.07
2022-08-14T06:47:02.250Z,9.43
2022-08-14T06:49:40.637Z,8.48
2022-08-14T06:52:15.305Z,8.48
2022-08-14T06:54:44.958Z,9.20
2022-08-14T06:57:14.198Z,9.75
2022-08-14T06:59:44.596Z,9.13
2022-08-14T07:02:30.679Z,8.65
2022-08-14T07:05:22.848Z,9.68
2022-08-14T07:07:52.669Z,9.40
2022-08-14T07:10:25.443Z,9.45
2022-08-14T07:13:03.890Z,8.57
2022-08-14T07:15:39.687Z,9.35
2022-08-14T07:18:12.255Z,9.30
2022-08-14T07:20:44.347Z,7.50
2022-08-14T07:23:19.919Z,4.70
2022-08-14T07:25:51.730Z,5.50
2022-08-14T07:28:23.689Z,5.20
2022-08-14T07:30:56.308Z,4.28
2022-08-14T07:33:29.904Z,4.40
2022-08-14T07:36:03.360Z,4.22
2022-08-14T07:38:52.641Z,3.67
2022-08-14T07:41:21.054Z,4.10
2022-08-14T07:43:56.083Z,3.30
2022-08-14T07:46:28.255Z,3.05
2022-08-14T07:48:58.141Z,3.03
2022-08-14T07:51:36.850Z,3.05
2022-08-14T07:54:11.190Z,2.42
2022-08-14T07:56:47.880Z,1.80
2022-08-14T07:59:40.604Z,1.98
2022-08-14T08:02:17.463Z,2.20
2022-08-14T08:04:54.161Z,1.73
2022-08-14T08:07:29.891Z,1.80
2022-08-14T08:10:00.818Z,1.40
2022-08-14T08:12:32.625Z,1.60
2022-08-14T08:15:07.062Z,1.80
2022-08-14T08:17:38.725Z,1.50
2022-08-14T08:20:11.576Z,1.88
2022-08-14T08:22:48.218Z,1.75
2022-08-14T08:25:19.005Z,1.83
2022-08-14T08:27:57.848Z,1.80
2022-08-14T08:30:27.180Z,2.17
2022-08-14T08:33:02.972Z,2.60
2022-08-14T08:35:47.151Z,2.65
2022-08-14T08:39:18.619Z,2.83
2022-08-14T08:41:13.175Z,2.97
2022-08-14T08:43:47.084Z,3.20
2022-08-14T08:46:18.838Z,2.97
2022-08-14T08:48:54.097Z,3.00
2022-08-14T08:51:30.489Z,3.70
2022-08-14T08:54:03.411Z,3.17
2022-08-14T08:56:42.096Z,2.85
2022-08-14T08:59:20.385Z,2.97
2022-08-14T09:01:56.499Z,3.45
2022-08-14T09:04:27.334Z,3.50
2022-08-14T09:07:09.551Z,3.72
2022-08-14T09:09:53.597Z,3.25
2022-08-14T09:12:23.892Z,3.45
2022-08-14T09:14:53.386Z,3.45
2022-08-14T09:17:25.827Z,3.20
2022-08-14T09:19:55.324Z,3.15
2022-08-14T09:22:35.138Z,3.17
2022-08-14T09:25:07.804Z,3.30
2022-08-14T09:27:37.652Z,3.90
2022-08-14T09:30:30.942Z,3.88
2022-08-14T09:33:36.333Z,4.10
2022-08-14T09:36:36.873Z,4.10
2022-08-14T09:39:22.822Z,4.22
2022-08-14T09:42:20.943Z,3.83
2022-08-14T09:45:11.764Z,3.90
2022-08-14T09:47:46.699Z,4.40
2022-08-14T09:50:25.686Z,4.25
2022-08-14T09:52:59.589Z,3.22
2022-08-14T09:55:36.852Z,4.20
2022-08-14T09:58:20.095Z,2.75
2022-08-14T10:00:54.696Z,3.22
2022-08-14T10:03:33.940Z,3.95
2022-08-14T10:06:10.603Z,4.05
2022-08-14T10:08:51.166Z,4.05
2022-08-14T10:11:23.043Z,4.40
2022-08-14T10:13:56.205Z,4.35
2022-08-14T10:16:33.803Z,4.20
2022-08-14T10:19:07.233Z,4.50
2022-08-14T10:21:38.569Z,5.32
2022-08-14T10:24:09.009Z,4.72
2022-08-14T10:26:43.622Z,4.88
2022-08-14T10:29:18.532Z,4.78
2022-08-14T10:32:18.297Z,4.30
2022-08-14T10:35:14.055Z,4.55
2022-08-14T10:37:48.588Z,4.47
2022-08-14T10:40:38.387Z,4.35
2022-08-14T10:43:23.203Z,4.40
2022-08-14T10:46:21.749Z,4.80
2022-08-14T10:48:58.999Z,4.53
2022-08-14T10:51:30.256Z,4.95
2022-08-14T10:54:17.153Z,4.85
2022-08-14T10:56:58.733Z,5.53
2022-08-14T10:59:30.594Z,5.22
2022-08-14T11:02:02.729Z,5.15
2022-08-14T11:04:32.122Z,5.75
2022-08-14T11:07:05.887Z,4.60
2022-08-14T11:09:35.292Z,5.20
2022-08-14T11:12:33.236Z,5.28
2022-08-14T11:14:59.402Z,5.45
2022-08-14T11:17:31.743Z,4.55
2022-08-14T11:20:03.411Z,4.60
2022-08-14T11:22:56.626Z,5.78
2022-08-14T11:25:23.857Z,4.72
2022-08-14T11:27:54.945Z,4.97
2022-08-14T11:30:49.108Z,4.50
2022-08-14T11:33:16.383Z,5.35
2022-08-14T11:35:49.838Z,4.95
2022-08-14T11:38:20.133Z,4.43
2022-08-14T11:40:50.387Z,4.57
2022-08-14T11:43:29.160Z,5.32
2022-08-14T11:45:58.537Z,4.68
2022-08-14T11:49:01.876Z,4.75
2022-08-14T11:51:26.186Z,4.25
2022-08-14T11:54:03.520Z,4.45
2022-08-14T11:56:37.294Z,4.30
2022-08-14T11:59:10.268Z,4.13
2022-08-14T12:01:41.147Z,4.78
2022-08-14T12:04:21.634Z,5.13
2022-08-14T12:07:01.879Z,6.10
2022-08-14T12:09:35.420Z,5.60
2022-08-14T12:12:16.239Z,5.60
2022-08-14T12:15:03.574Z,5.78
2022-08-14T12:17:49.336Z,5.15
2022-08-14T12:20:30.223Z,5.03
2022-08-14T12:23:05.191Z,4.72
2022-08-14T12:25:35.157Z,5.80
2022-08-14T12:28:27.136Z,5.65
2022-08-14T12:31:00.266Z,6.22
2022-08-14T12:33:33.385Z,6.45
2022-08-14T12:36:06.298Z,5.43
2022-08-14T12:38:43.614Z,5.20
2022-08-14T12:41:16.320Z,5.60
2022-08-14T12:43:59.439Z,6.30
2022-08-14T12:46:30.595Z,5.95
2022-08-14T12:49:06.439Z,5.80
2022-08-14T12:51:38.146Z,5.85
2022-08-14T12:54:27.204Z,5.32
2022-08-14T12:57:06.334Z,6.50
2022-08-14T12:59:37.289Z,6.07
2022-08-14T13:02:25.371Z,6.43
2022-08-14T13:04:56.571Z,6.35
2022-08-14T13:07:32.642Z,6.22
2022-08-14T13:10:12.774Z,7.35
2022-08-14T13:13:12.674Z,6.50
2022-08-14T13:15:41.809Z,7.10
2022-08-14T13:18:16.062Z,7.10
2022-08-14T13:20:49.459Z,5.95
2022-08-14T13:23:32.138Z,6.15
2022-08-14T13:26:02.829Z,5.43
2022-08-14T13:28:34.153Z,5.25
2022-08-14T13:31:10.935Z,5.55
2022-08-14T13:33:41.168Z,5.13
2022-08-14T13:36:23.642Z,5.78
2022-08-14T13:38:56.384Z,5.30
2022-08-14T13:41:36.124Z,6.32
2022-08-14T13:44:05.418Z,5.97
2022-08-14T13:46:44.505Z,5.65
2022-08-14T13:49:15.380Z,6.38
2022-08-14T13:51:48.874Z,5.97
2022-08-14T13:54:25.247Z,5.93
2022-08-14T13:56:55.672Z,5.82
2022-08-14T13:59:38.042Z,5.25
2022-08-14T14:02:08.831Z,6.00
2022-08-14T14:04:41.519Z,5.43
2022-08-14T14:07:16.020Z,5.82
2022-08-14T14:09:51.007Z,6.10
2022-08-14T14:12:36.453Z,5.35
2022-08-14T14:15:11.742Z,4.85
2022-08-14T14:17:40.955Z,4.82
2022-08-14T14:20:35.973Z,5.88
2022-08-14T14:23:09.514Z,5.28
2022-08-14T14:25:51.235Z,5.13
2022-08-14T14:28:32.611Z,5.72
2022-08-14T14:31:06.879Z,4.40
2022-08-14T14:33:52.078Z,5.68
2022-08-14T14:36:24.387Z,4.43
2022-08-14T14:38:54.324Z,5.03
2022-08-14T14:41:37.600Z,4.50
2022-08-14T14:44:09.228Z,5.28
2022-08-14T14:46:41.659Z,4.35
2022-08-14T14:49:14.654Z,4.70
2022-08-14T14:51:46.632Z,4.47
2022-08-14T14:54:31.493Z,4.20
2022-08-14T14:57:09.035Z,4.60
2022-08-14T14:59:40.150Z,4.80
2022-08-14T15:02:11.902Z,4.53
2022-08-14T15:04:43.474Z,4.82
2022-08-14T15:07:13.115Z,4.30
2022-08-14T15:09:44.876Z,4.50
2022-08-14T15:12:52.154Z,3.90
2022-08-14T15:15:08.820Z,4.15
2022-08-14T15:17:42.477Z,4.15
2022-08-14T15:20:17.404Z,4.53
2022-08-14T15:23:01.104Z,4.72
2022-08-14T15:25:41.054Z,4.30
2022-08-14T15:28:13.154Z,4.13
2022-08-14T15:30:50.967Z,4.20
2022-08-14T15:34:01.064Z,4.15
2022-08-14T15:36:29.369Z,4.00
2022-08-14T15:38:59.607Z,4.30
2022-08-14T15:41:41.203Z,4.22
2022-08-14T15:44:25.284Z,4.75
2022-08-14T15:46:56.322Z,4.00
2022-08-14T15:49:34.434Z,4.18
2022-08-14T15:52:04.988Z,4.60
2022-08-14T15:54:33.979Z,4.55
2022-08-14T15:57:06.229Z,3.80
2022-08-14T15:59:57.043Z,4.88
2022-08-14T16:02:27.951Z,4.10
2022-08-14T16:04:57.185Z,3.88
2022-08-14T16:07:27.356Z,4.50
2022-08-14T16:10:27.715Z,5.57
2022-08-14T16:12:47.745Z,4.63
2022-08-14T16:15:21.118Z,4.88
2022-08-14T16:17:50.420Z,4.25
2022-08-14T16:20:41.767Z,4.80
2022-08-14T16:23:11.686Z,4.53
2022-08-14T16:25:41.629Z,4.50
2022-08-14T16:28:27.025Z,5.22
2022-08-14T16:31:00.634Z,4.90
2022-08-14T16:33:58.930Z,4.90
2022-08-14T16:36:30.138Z,4.20
2022-08-14T16:39:01.967Z,5.25
2022-08-14T16:41:30.458Z,5.10
2022-08-14T16:44:02.532Z,4.75
2022-08-14T16:46:38.175Z,4.63
2022-08-14T16:49:10.926Z,5.90
2022-08-14T16:51:40.798Z,5.13
2022-08-14T16:54:33.994Z,4.00
2022-08-14T16:57:16.258Z,4.45
2022-08-14T16:59:57.180Z,4.63
2022-08-14T17:02:36.834Z,5.15
2022-08-14T17:05:21.940Z,4.65
2022-08-14T17:08:31.914Z,4.70
2022-08-14T17:11:09.997Z,4.40
2022-08-14T17:13:58.517Z,4.85
2022-08-14T17:16:37.708Z,4.60
2022-08-14T17:19:11.592Z,4.47
2022-08-14T17:21:47.401Z,4.43
2022-08-14T17:24:57.803Z,4.03
2022-08-14T17:27:08.191Z,4.90
2022-08-14T17:29:44.673Z,3.90
2022-08-14T17:32:29.518Z,4.43
2022-08-14T17:35:16.443Z,4.47
2022-08-14T17:37:56.010Z,4.72
2022-08-14T17:40:30.799Z,4.35
2022-08-14T17:43:02.054Z,4.15
2022-08-14T17:45:46.691Z,4.05
2022-08-14T17:49:15.718Z,4.22
2022-08-14T17:51:23.641Z,4.32
2022-08-14T17:54:02.483Z,4.35
2022-08-14T17:56:36.187Z,4.57
2022-08-14T17:59:07.466Z,4.20
2022-08-14T18:01:40.858Z,4.60
2022-08-14T18:04:24.653Z,4.90
2022-08-14T18:07:08.760Z,4.68
2022-08-14T18:09:40.275Z,4.75
2022-08-14T18:12:36.819Z,4.70
2022-08-14T18:15:16.236Z,4.30
2022-08-14T18:17:52.484Z,4.40
2022-08-14T18:21:42.625Z,4.45
2022-08-14T18:23:15.477Z,4.28
2022-08-14T18:25:52.105Z,4.57
2022-08-14T18:28:47.975Z,4.38
2022-08-14T18:31:43.553Z,4.82
2022-08-14T18:34:31.959Z,4.65
2022-08-14T18:37:17.593Z,4.35
2022-08-14T18:40:03.366Z,4.47
2022-08-14T18:42:45.636Z,4.63
2022-08-14T18:45:19.009Z,4.55
2022-08-14T18:48:14.593Z,4.50
2022-08-14T18:50:54.177Z,4.60
2022-08-14T18:53:24.342Z,4.55
2022-08-14T18:55:59.996Z,5.10
2022-08-14T18:58:46.449Z,5.50
2022-08-14T19:01:25.125Z,6.00
2022-08-14T19:04:01.069Z,5.47
2022-08-14T19:06:56.278Z,6.10
2022-08-14T19:09:58.270Z,5.97
2022-08-14T19:13:11.555Z,6.22
2022-08-14T19:15:44.353Z,6.03
2022-08-14T19:18:38.417Z,5.63
2022-08-14T19:21:13.067Z,5.90
2022-08-14T19:23:44.789Z,6.45
2022-08-14T19:26:36.005Z,5.93
2022-08-14T19:29:35.976Z,5.93
2022-08-14T19:32:22.582Z,5.90
2022-08-14T19:34:52.493Z,7.32
2022-08-14T19:37:47.806Z,6.70
2022-08-14T19:40:31.706Z,7.07
2022-08-14T19:43:06.327Z,7.80
2022-08-14T19:45:38.193Z,6.88
2022-08-14T19:48:14.155Z,6.82
2022-08-14T19:50:46.746Z,5.85
2022-08-14T19:53:18.323Z,6.88
2022-08-14T19:55:59.609Z,6.90
2022-08-14T19:58:54.994Z,6.68
2022-08-14T20:01:37.085Z,7.50
2022-08-14T20:04:44.929Z,7.47
2022-08-14T20:07:01.901Z,7.13
2022-08-14T20:11:11.599Z,6.50
2022-08-14T20:12:36.546Z,6.68
2022-08-14T20:15:21.184Z,6.53
2022-08-14T20:17:53.058Z,7.43
2022-08-14T20:20:31.706Z,6.55
2022-08-14T20:23:11.273Z,7.03
2022-08-14T20:25:45.539Z,6.65
2022-08-14T20:28:32.069Z,5.80
2022-08-14T20:31:15.821Z,6.32
2022-08-14T20:34:06.779Z,5.65
2022-08-14T20:36:40.457Z,5.88
2022-08-14T20:39:15.043Z,5.20
2022-08-14T20:41:49.833Z,4.63
2022-08-14T20:44:39.176Z,5.82
2022-08-14T20:47:08.382Z,5.28
2022-08-14T20:49:38.146Z,5.10
2022-08-14T20:52:19.215Z,5.18
2022-08-14T20:54:51.451Z,5.15
2022-08-14T20:57:20.958Z,5.20
2022-08-14T20:59:53.614Z,5.60
2022-08-14T21:02:50.237Z,4.90
2022-08-14T21:05:22.559Z,5.35
2022-08-14T21:08:08.400Z,4.63
2022-08-14T21:10:54.980Z,5.95
2022-08-14T21:14:09.236Z,5.53
2022-08-14T21:16:25.703Z,5.35
2022-08-14T21:19:06.239Z,5.40
2022-08-14T21:21:41.898Z,5.80
2022-08-14T21:24:38.953Z,5.45
2022-08-14T21:27:12.437Z,5.72
2022-08-14T21:29:49.855Z,5.05
2022-08-14T21:32:47.070Z,5.63
2022-08-14T21:35:22.620Z,4.78
2022-08-14T21:37:52.622Z,5.38
2022-08-14T21:40:41.195Z,5.45
2022-08-14T21:43:17.831Z,4.88
2022-08-14T21:45:53.130Z,5.13
2022-08-14T21:48:25.395Z,4.72
2022-08-14T21:51:01.789Z,5.40
2022-08-14T21:53:58.817Z,4.60
2022-08-14T21:56:37.149Z,3.92
2022-08-14T21:59:09.630Z,4.55
2022-08-14T22:02:00.460Z,4.43
2022-08-14T22:04:32.661Z,4.60
2022-08-14T22:07:05.521Z,4.80
2022-08-14T22:09:36.981Z,4.65
2022-08-14T22:12:07.363Z,4.97
2022-08-14T22:14:43.284Z,5.07
2022-08-14T22:17:17.259Z,4.75
2022-08-14T22:19:55.035Z,5.13
2022-08-14T22:22:27.344Z,5.20
2022-08-14T22:24:59.971Z,5.85
2022-08-14T22:27:32.611Z,5.55
2022-08-14T22:30:02.376Z,6.22
2022-08-14T22:32:35.259Z,5.88
2022-08-14T22:35:23.549Z,6.72
2022-08-14T22:38:36.309Z,5.68
2022-08-14T22:41:09.177Z,6.25
2022-08-14T22:43:35.934Z,5.97
2022-08-14T22:46:15.156Z,6.35
2022-08-14T22:48:49.828Z,6.53
2022-08-14T22:51:21.822Z,6.32
2022-08-14T22:53:55.000Z,6.18
2022-08-14T22:56:29.358Z,6.13
2022-08-14T22:58:59.818Z,5.93
2022-08-14T23:01:56.239Z,5.95
2022-08-14T23:04:35.823Z,6.20
2022-08-14T23:07:21.797Z,6.38
2022-08-14T23:09:56.434Z,6.57
2022-08-14T23:12:31.607Z,6.80
2022-08-14T23:15:01.170Z,6.75
2022-08-14T23:17:38.762Z,6.95
2022-08-14T23:20:19.320Z,6.85
2022-08-14T23:22:51.290Z,6.60
2022-08-14T23:25:57.954Z,6.85
2022-08-14T23:28:34.157Z,7.20
2022-08-14T23:31:08.191Z,6.57
2022-08-14T23:33:46.144Z,6.93
2022-08-14T23:36:31.583Z,6.70
2022-08-14T23:39:10.192Z,6.60
2022-08-14T23:41:46.416Z,7.55
2022-08-14T23:44:24.517Z,6.40
2022-08-14T23:46:57.088Z,6.75
2022-08-14T23:49:59.795Z,6.72
2022-08-14T23:52:50.677Z,6.40
2022-08-14T23:55:11.307Z,6.88
2022-08-14T23:57:44.056Z,6.95
